Time;durP1;ratioP1;P1;durP2;ratioP2;P2;SDS_P1;SDS_P2;PMS_P1;PMS_P2;Temp;Humidity;BMP_temperature;BMP_pressure;BME280_temperature;BME280_humidity;BME280_pressure;Samples;Min_cycle;Max_cycle;Signal;HPM_P1;HPM_P2
2021/02/02 00:02:24;;;;;;;;;59.50;45.00;;;;;-1.14;83.12;100579.97;3725275;38;21849;-63
2021/02/02 00:04:50;;;;;;;;;66.25;48.50;;;;;-1.14;83.03;100579.97;3725210;37;21866;-61
2021/02/02 00:07:16;;;;;;;;;66.75;48.75;;;;;-1.14;83.35;100579.97;3725206;37;21842;-63
2021/02/02 00:09:43;;;;;;;;;43.75;37.50;;;;;-1.12;83.35;100586.00;3724764;37;21841;-62
2021/02/02 00:12:10;;;;;;;;;69.75;50.75;;;;;-1.12;83.50;100580.69;3724221;38;21822;-62
2021/02/02 00:14:37;;;;;;;;;60.75;46.50;;;;;-1.10;83.38;100577.94;3724466;37;21836;-62
2021/02/02 00:17:03;;;;;;;;;70.50;53.75;;;;;-1.08;83.42;100574.22;3724796;37;21844;-61
2021/02/02 00:19:29;;;;;;;;;66.75;50.75;;;;;-1.06;83.16;100574.97;3724483;38;21853;-61
2021/02/02 00:21:55;;;;;;;;;62.75;49.50;;;;;-1.04;83.34;100575.66;3724737;37;21842;-61
2021/02/02 00:24:21;;;;;;;;;52.75;46.50;;;;;-1.08;83.48;100563.59;3725219;37;21849;-63
2021/02/02 00:26:48;;;;;;;;;64.50;46.25;;;;;-1.16;83.65;100567.75;3725290;37;21812;-61
2021/02/02 00:29:14;;;;;;;;;48.75;40.25;;;;;-1.19;83.54;100568.81;3725386;37;21825;-62
2021/02/02 00:31:40;;;;;;;;;53.75;46.00;;;;;-1.34;83.48;100541.53;3725644;38;21816;-61
2021/02/02 00:34:06;;;;;;;;;56.75;46.00;;;;;-1.22;83.54;100566.37;3726910;38;21832;-62
2021/02/02 00:36:32;;;;;;;;;57.50;45.50;;;;;-1.31;83.49;100569.66;3726190;37;21821;-61
2021/02/02 00:38:58;;;;;;;;;63.75;47.75;;;;;-1.33;83.42;100568.94;3726050;37;21796;-61
2021/02/02 00:41:25;;;;;;;;;51.75;43.00;;;;;-1.34;83.37;100573.38;3726922;38;21791;-62
2021/02/02 00:43:51;;;;;;;;;62.25;48.75;;;;;-1.37;83.67;100570.09;3726365;38;21873;-62
2021/02/02 00:46:17;;;;;;;;;53.75;36.00;;;;;-1.47;83.68;100574.34;3726132;38;21812;-61
2021/02/02 00:48:43;;;;;;;;;66.00;49.00;;;;;-1.47;83.96;100569.88;3726082;37;21816;-62
2021/02/02 00:51:09;;;;;;;;;58.50;46.25;;;;;-1.41;84.02;100568.63;3725825;38;21862;-63
2021/02/02 00:53:36;;;;;;;;;58.00;44.50;;;;;-1.43;84.03;100571.38;3725279;38;21784;-62
2021/02/02 00:56:02;;;;;;;;;69.00;51.00;;;;;-1.43;84.10;100563.41;3725225;37;21816;-61
2021/02/02 00:58:28;;;;;;;;;55.50;44.00;;;;;-1.51;83.71;100563.09;3724834;37;21799;-61
2021/02/02 01:00:54;;;;;;;;;59.75;41.00;;;;;-1.60;84.08;100563.75;3724631;37;21806;-61
2021/02/02 01:03:24;;;;;;;;;68.50;53.50;;;;;-1.64;84.51;100566.72;3724681;37;21782;-61
2021/02/02 01:05:51;;;;;;;;;60.50;47.50;;;;;-1.64;84.20;100558.78;3725108;38;21768;-62
2021/02/02 01:08:18;;;;;;;;;52.75;42.00;;;;;-1.83;84.54;100528.19;3725224;37;21765;-61
2021/02/02 01:10:47;;;;;;;;;57.75;48.50;;;;;-1.66;84.50;100564.19;3725210;37;21766;-63
2021/02/02 01:13:20;;;;;;;;;61.00;48.25;;;;;-1.74;84.80;100537.31;3725331;37;21774;-61
2021/02/02 01:15:49;;;;;;;;;64.75;45.00;;;;;-1.69;84.17;100551.97;3725320;38;21774;-61
2021/02/02 01:18:19;;;;;;;;;69.00;51.25;;;;;-1.75;84.75;100548.87;3725139;38;21760;-62
2021/02/02 01:20:46;;;;;;;;;62.25;46.25;;;;;-1.75;84.49;100557.69;3725423;37;21760;-61
2021/02/02 01:23:15;;;;;;;;;65.25;49.00;;;;;-1.75;84.52;100560.34;3725517;38;21773;-62
2021/02/02 01:25:41;;;;;;;;;65.50;52.75;;;;;-1.76;84.73;100566.63;3725215;38;21772;-61
2021/02/02 01:28:07;;;;;;;;;61.75;46.00;;;;;-1.76;84.54;100558.66;3725313;38;21742;-64
2021/02/02 01:30:36;;;;;;;;;70.00;51.75;;;;;-1.80;84.64;100554.50;3725324;38;21735;-62
2021/02/02 01:33:10;;;;;;;;;60.25;47.50;;;;;-1.73;84.47;100561.09;3725460;37;21736;-62
2021/02/02 01:35:38;;;;;;;;;62.50;47.50;;;;;-1.70;84.71;100560.03;3725267;37;21743;-61
2021/02/02 01:38:07;;;;;;;;;62.00;47.75;;;;;-1.70;84.79;100571.50;3725260;38;21736;-61
2021/02/02 01:40:40;;;;;;;;;68.50;45.75;;;;;-1.65;84.79;100573.00;3725299;38;21728;-61
2021/02/02 01:43:13;;;;;;;;;73.50;54.25;;;;;-1.62;84.91;100578.94;3725264;37;21741;-61
2021/02/02 01:45:45;;;;;;;;;68.75;51.75;;;;;-1.64;84.72;100578.19;3725326;38;21331;-61
2021/02/02 01:48:43;;;;;;;;;61.25;52.00;;;;;-1.65;84.78;100584.44;3725375;38;21733;-60
2021/02/02 01:51:31;;;;;;;;;69.00;53.75;;;;;-1.76;84.63;100571.91;3725251;37;21719;-62
2021/02/02 01:54:13;;;;;;;;;79.75;57.00;;;;;-1.71;85.09;100583.06;3725230;38;21737;-60
2021/02/02 01:57:06;;;;;;;;;74.50;57.00;;;;;-1.72;84.99;100584.03;3725100;37;21716;-63
2021/02/02 01:59:39;;;;;;;;;70.75;53.75;;;;;-1.69;84.70;100588.28;3725099;37;21712;-63
2021/02/02 02:02:08;;;;;;;;;71.50;53.75;;;;;-1.73;84.92;100592.94;3725335;38;21724;-62
2021/02/02 02:04:35;;;;;;;;;66.25;55.00;;;;;-1.70;85.07;100602.50;3725166;38;21702;-62
2021/02/02 02:07:02;;;;;;;;;69.50;51.75;;;;;-1.65;85.40;100607.47;3725325;37;21714;-63
2021/02/02 02:09:28;;;;;;;;;69.50;53.25;;;;;-1.71;85.08;100595.47;3725329;37;21690;-62
2021/02/02 02:12:46;;;;;;;;;76.50;53.75;;;;;-1.94;84.99;100551.94;3725159;37;21710;-62
2021/02/02 02:15:45;;;;;;;;;81.75;55.25;;;;;-1.59;85.08;100607.06;3725216;37;21668;-61
2021/02/02 02:18:43;;;;;;;;;72.00;55.25;;;;;-1.74;84.95;100593.03;3725194;37;21692;-62
2021/02/02 02:21:26;;;;;;;;;70.00;53.00;;;;;-1.60;84.90;100613.34;3725175;38;21705;-62
2021/02/02 02:24:57;;;;;;;;;71.00;53.75;;;;;-1.56;85.21;100614.81;3725285;37;21674;-61
2021/02/02 02:28:11;;;;;;;;;77.25;59.25;;;;;-1.52;85.21;100630.41;3725242;37;21666;-62
2021/02/02 02:30:51;;;;;;;;;76.75;55.50;;;;;-1.56;84.81;100634.22;3725243;37;21682;-62
2021/02/02 02:33:38;;;;;;;;;74.75;57.25;;;;;-1.58;84.87;100633.50;3725214;37;21681;-61
2021/02/02 02:36:09;;;;;;;;;71.75;51.00;;;;;-1.66;85.06;100622.56;3725258;38;21647;-61
2021/02/02 02:38:40;;;;;;;;;75.00;55.75;;;;;-1.60;85.05;100632.75;3725352;37;21655;-61
2021/02/02 02:41:12;;;;;;;;;76.50;55.75;;;;;-1.60;85.13;100623.94;3725140;37;21644;-62
2021/02/02 02:43:56;;;;;;;;;73.50;57.50;;;;;-1.57;85.17;100629.03;3725228;37;21651;-61
2021/02/02 02:46:31;;;;;;;;;73.25;56.00;;;;;-1.60;85.09;100637.22;3725222;37;21664;-62
2021/02/02 02:49:03;;;;;;;;;70.00;52.00;;;;;-1.69;84.95;100644.00;3725247;37;21646;-62
2021/02/02 02:51:31;;;;;;;;;62.75;44.75;;;;;-1.63;84.98;100653.34;3725379;38;21633;-61
2021/02/02 02:54:00;;;;;;;;;76.25;51.50;;;;;-1.50;85.31;100654.19;3725308;37;21657;-62
2021/02/02 02:56:31;;;;;;;;;68.75;48.75;;;;;-1.44;85.08;100656.41;3725472;37;21653;-61
2021/02/02 02:59:01;;;;;;;;;70.50;52.00;;;;;-1.45;84.65;100655.56;3725378;37;21646;-60
2021/02/02 03:01:31;;;;;;;;;65.75;51.50;;;;;-1.45;85.11;100650.25;3725481;37;21623;-63
2021/02/02 03:04:04;;;;;;;;;66.75;50.50;;;;;-1.37;85.07;100650.59;3725358;37;21635;-60
2021/02/02 03:06:31;;;;;;;;;73.25;54.00;;;;;-1.35;84.91;100661.94;3725101;37;21623;-60
2021/02/02 03:09:08;;;;;;;;;72.75;55.00;;;;;-1.52;84.65;100646.31;3725071;37;21611;-61
2021/02/02 03:11:36;;;;;;;;;81.25;59.00;;;;;-1.51;84.74;100668.41;3725108;38;21632;-62
2021/02/02 03:14:04;;;;;;;;;89.75;61.75;;;;;-1.58;84.78;100670.66;3725155;37;21646;-62
2021/02/02 03:16:32;;;;;;;;;83.50;57.00;;;;;-1.71;84.83;100661.81;3725772;38;21603;-61
2021/02/02 03:18:59;;;;;;;;;74.50;57.50;;;;;-1.80;84.87;100641.19;3725555;37;21619;-60
2021/02/02 03:22:05;;;;;;;;;83.25;60.75;;;;;-1.62;85.05;100670.97;3725705;37;21589;-61
2021/02/02 03:24:46;;;;;;;;;78.75;59.50;;;;;-1.62;85.10;100670.97;3725755;37;21571;-61
2021/02/02 03:27:37;;;;;;;;;81.00;59.75;;;;;-1.57;85.31;100674.16;3725171;37;21602;-61
2021/02/02 03:30:28;;;;;;;;;80.75;59.75;;;;;-1.63;85.14;100653.34;3725400;38;21604;-61
2021/02/02 03:33:15;;;;;;;;;83.75;62.75;;;;;-1.52;85.34;100672.88;3725195;38;21596;-61
2021/02/02 03:35:44;;;;;;;;;78.00;58.25;;;;;-1.51;85.26;100661.28;3725216;38;21580;-61
2021/02/02 03:38:34;;;;;;;;;74.75;56.00;;;;;-1.54;85.02;100663.31;3725216;37;21592;-63
2021/02/02 03:41:38;;;;;;;;;81.75;63.25;;;;;-1.61;85.00;100657.59;3725171;38;21597;-63
2021/02/02 03:44:17;;;;;;;;;85.75;63.75;;;;;-1.69;84.76;100652.81;3725124;37;21567;-62
2021/02/02 03:46:56;;;;;;;;;82.25;59.50;;;;;-1.63;85.09;100666.59;3725082;38;21549;-63
2021/02/02 03:49:30;;;;;;;;;84.00;62.00;;;;;-1.67;85.07;100671.28;3725326;38;21554;-59
2021/02/02 03:52:02;;;;;;;;;75.50;57.25;;;;;-1.61;85.17;100677.97;3725282;38;21546;-61
2021/02/02 03:54:31;;;;;;;;;91.25;63.75;;;;;-1.61;85.10;100681.47;3725314;37;21578;-60
2021/02/02 03:57:07;;;;;;;;;87.50;62.75;;;;;-1.83;84.59;100684.69;3725266;37;21570;-60
2021/02/02 03:59:39;;;;;;;;;82.25;62.25;;;;;-2.00;85.15;100669.91;3725218;38;21546;-62
2021/02/02 04:02:08;;;;;;;;;98.50;71.25;;;;;-2.04;85.13;100667.53;3725083;37;18334;-61
2021/02/02 04:04:35;;;;;;;;;98.25;74.75;;;;;-2.04;85.21;100668.41;3724640;38;18356;-62
2021/02/02 04:07:39;;;;;;;;;102.50;73.50;;;;;-2.07;85.17;100671.25;3724863;37;18333;-61
2021/02/02 04:10:08;;;;;;;;;85.50;63.25;;;;;-2.11;85.22;100658.31;3725371;38;18343;-61
2021/02/02 04:12:51;;;;;;;;;79.75;58.00;;;;;-2.21;85.21;100658.06;3725186;37;21592;-62
2021/02/02 04:15:42;;;;;;;;;85.75;65.50;;;;;-2.13;85.55;100674.31;3725280;38;21542;-62
2021/02/02 04:18:33;;;;;;;;;86.00;64.00;;;;;-2.14;85.58;100666.47;3725175;38;18331;-60
2021/02/02 04:21:11;;;;;;;;;84.75;61.50;;;;;-2.13;85.41;100660.22;3724987;38;21541;-62
2021/02/02 04:23:46;;;;;;;;;70.00;52.75;;;;;-2.14;85.07;100677.06;3725252;37;21530;-60
2021/02/02 04:26:14;;;;;;;;;74.75;58.75;;;;;-2.20;85.38;100680.97;3725238;37;21543;-60
2021/02/02 04:28:42;;;;;;;;;78.25;59.50;;;;;-2.28;85.58;100679.75;3725159;38;21490;-62
2021/02/02 04:31:10;;;;;;;;;76.50;58.75;;;;;-2.23;85.95;100686.47;3725158;38;21617;-62
2021/02/02 04:33:36;;;;;;;;;76.75;56.00;;;;;-2.18;85.78;100700.28;3725206;38;21513;-60
2021/02/02 04:36:04;;;;;;;;;75.25;55.00;;;;;-2.17;85.72;100703.78;3725392;38;21538;-60
2021/02/02 04:38:31;;;;;;;;;69.00;53.50;;;;;-2.03;85.56;100709.03;3725334;37;21524;-62
2021/02/02 04:41:10;;;;;;;;;69.50;52.75;;;;;-2.12;85.48;100675.19;3724828;37;21495;-62
2021/02/02 04:43:40;;;;;;;;;63.25;51.25;;;;;-2.03;85.94;100690.47;3725338;37;21496;-61
2021/02/02 04:46:23;;;;;;;;;75.00;56.25;;;;;-1.90;85.50;100695.81;3725172;37;21484;-63
2021/02/02 04:48:58;;;;;;;;;62.50;50.75;;;;;-1.88;85.67;100697.41;3725237;38;21505;-62
2021/02/02 04:51:30;;;;;;;;;72.50;57.00;;;;;-1.89;85.62;100698.37;3725314;37;21481;-61
2021/02/02 04:54:00;;;;;;;;;81.00;57.00;;;;;-1.97;85.80;100682.09;3725367;37;21498;-62
2021/02/02 04:57:08;;;;;;;;;80.50;58.00;;;;;-2.03;85.20;100682.50;3725218;38;21489;-62
2021/02/02 05:00:01;;;;;;;;;97.00;67.50;;;;;-1.96;85.50;100688.25;3725347;38;21450;-61
2021/02/02 05:03:06;;;;;;;;;102.00;71.25;;;;;-1.84;85.68;100719.28;3725470;38;18279;-62
2021/02/02 05:06:10;;;;;;;;;86.25;64.75;;;;;-2.03;85.41;100716.97;3725682;38;18311;-61
2021/02/02 05:09:02;;;;;;;;;91.50;66.00;;;;;-2.22;85.56;100716.47;3725432;38;21462;-64
2021/02/02 05:12:14;;;;;;;;;96.25;67.75;;;;;-2.38;85.84;100704.19;3725331;37;18268;-61
2021/02/02 05:15:27;;;;;;;;;84.25;58.00;;;;;-2.28;86.06;100699.16;3725442;38;18265;-61
2021/02/02 05:18:38;;;;;;;;;81.25;57.75;;;;;-1.99;86.04;100745.00;3725474;38;21481;-62
2021/02/02 05:21:41;;;;;;;;;55.25;43.75;;;;;-1.93;86.06;100744.59;3725311;38;21463;-61
2021/02/02 05:24:25;;;;;;;;;75.00;55.50;;;;;-1.96;85.89;100730.69;3725252;38;21467;-61
2021/02/02 05:26:51;;;;;;;;;83.00;58.75;;;;;-1.83;85.95;100747.50;3725326;37;21440;-63
2021/02/02 05:29:42;;;;;;;;;87.00;67.75;;;;;-1.86;85.82;100743.25;3725289;37;21436;-62
2021/02/02 05:32:29;;;;;;;;;81.25;62.00;;;;;-1.95;85.44;100746.50;3725353;38;18254;-62
2021/02/02 05:35:33;;;;;;;;;87.50;66.00;;;;;-1.91;86.11;100749.81;3725278;37;21450;-62
2021/02/02 05:38:00;;;;;;;;;86.50;62.75;;;;;-1.87;85.59;100759.28;3725352;38;18212;-63
2021/02/02 05:40:32;;;;;;;;;77.25;57.00;;;;;-1.90;85.66;100762.97;3725339;38;21431;-63
2021/02/02 05:43:20;;;;;;;;;95.75;69.75;;;;;-1.92;85.70;100753.41;3725316;37;21419;-62
2021/02/02 05:45:47;;;;;;;;;83.50;63.50;;;;;-2.03;85.71;100757.59;3725438;38;18211;-61
2021/02/02 05:48:15;;;;;;;;;91.50;67.50;;;;;-2.28;85.74;100730.12;3725055;37;21409;-63
2021/02/02 05:50:45;;;;;;;;;80.50;61.25;;;;;-2.11;85.48;100759.94;3725576;38;18185;-61
2021/02/02 05:53:37;;;;;;;;;86.25;58.75;;;;;-2.11;85.60;100780.28;3726081;37;21413;-61
2021/02/02 05:56:11;;;;;;;;;81.75;61.50;;;;;-2.10;85.72;100782.84;3725764;38;21413;-61
2021/02/02 05:58:43;;;;;;;;;70.50;56.75;;;;;-2.06;85.97;100770.22;3727447;37;21394;-62
2021/02/02 06:01:43;;;;;;;;;62.25;51.50;;;;;-2.06;86.04;100767.56;3726217;38;21392;-62
2021/02/02 06:04:25;;;;;;;;;72.00;53.50;;;;;-1.83;86.32;100780.19;3725196;37;21394;-62
2021/02/02 06:07:05;;;;;;;;;75.00;58.50;;;;;-1.88;85.89;100771.69;3725287;37;21385;-63
2021/02/02 06:09:31;;;;;;;;;75.25;57.00;;;;;-1.92;86.20;100775.47;3725226;37;21402;-62
2021/02/02 06:11:59;;;;;;;;;76.25;59.75;;;;;-1.84;85.97;100767.03;3726017;38;21373;-62
2021/02/02 06:14:28;;;;;;;;;55.25;37.75;;;;;-2.25;86.01;100691.03;3725248;37;21383;-62
2021/02/02 06:17:00;;;;;;;;;76.25;59.50;;;;;-1.62;86.07;100769.16;3724634;38;21369;-62
2021/02/02 06:19:28;;;;;;;;;96.00;70.75;;;;;-1.51;85.74;100764.81;3725292;37;21370;-63
2021/02/02 06:22:07;;;;;;;;;123.25;94.00;;;;;-1.47;85.90;100758.34;3725292;37;18173;-61
2021/02/02 06:24:43;;;;;;;;;115.50;97.25;;;;;-1.41;85.71;100768.56;3725545;37;18164;-63
2021/02/02 06:27:19;;;;;;;;;92.00;69.25;;;;;-1.39;85.39;100765.78;3725277;38;18161;-63
2021/02/02 06:30:09;;;;;;;;;86.25;64.00;;;;;-1.34;85.27;100767.19;3725386;37;18144;-62
2021/02/02 06:32:38;;;;;;;;;182.25;142.25;;;;;-1.27;85.64;100764.12;3725437;37;21362;-61
2021/02/02 06:35:22;;;;;;;;;104.50;74.25;;;;;-1.41;85.18;100743.81;3725360;38;18162;-62
2021/02/02 06:37:51;;;;;;;;;89.00;68.25;;;;;-1.17;85.16;100771.38;3725497;38;18129;-63
2021/02/02 06:40:31;;;;;;;;;82.50;62.75;;;;;-1.13;85.30;100772.03;3724995;38;18164;-61
2021/02/02 06:43:21;;;;;;;;;85.25;62.00;;;;;-1.03;85.24;100783.69;3725318;37;21361;-62
2021/02/02 06:45:48;;;;;;;;;83.25;63.75;;;;;-1.14;85.27;100752.56;3725167;38;21334;-61
2021/02/02 06:48:17;;;;;;;;;95.25;71.50;;;;;-1.03;84.82;100781.03;3725556;38;20895;-62
2021/02/02 06:50:53;;;;;;;;;90.50;69.00;;;;;-0.98;84.93;100783.38;3725883;37;18089;-60
2021/02/02 06:54:00;;;;;;;;;78.75;60.50;;;;;-1.04;84.72;100790.81;3725785;37;18075;-63
2021/02/02 06:57:02;;;;;;;;;91.75;64.25;;;;;-1.10;84.44;100790.41;3725482;37;20889;-64
2021/02/02 07:00:02;;;;;;;;;88.00;63.75;;;;;-1.05;84.56;100790.94;3725520;38;18093;-62
2021/02/02 07:03:14;;;;;;;;;79.00;58.50;;;;;-1.20;84.78;100755.66;3725426;38;20879;-61
2021/02/02 07:06:39;;;;;;;;;84.25;58.50;;;;;-1.09;84.71;100761.09;3725342;38;20978;-61
2021/02/02 07:09:34;;;;;;;;;93.25;68.75;;;;;-0.87;84.67;100784.34;3725398;37;20884;-64
2021/02/02 07:12:32;;;;;;;;;78.00;59.25;;;;;-0.90;84.73;100759.81;3725484;37;18090;-60
2021/02/02 07:15:24;;;;;;;;;72.75;53.25;;;;;-0.61;84.73;100790.53;3725255;37;20891;-61
2021/02/02 07:18:31;;;;;;;;;75.00;55.75;;;;;-0.43;84.60;100791.88;3725474;38;20848;-61
2021/02/02 07:21:32;;;;;;;;;75.00;56.25;;;;;-0.43;84.12;100785.72;3725406;37;20893;-60
2021/02/02 07:24:29;;;;;;;;;80.50;58.50;;;;;-0.39;83.62;100787.22;3725565;37;20874;-61
2021/02/02 07:27:04;;;;;;;;;71.50;56.50;;;;;-0.29;83.77;100785.59;3725559;37;20843;-60
2021/02/02 07:29:45;;;;;;;;;78.25;58.00;;;;;-0.28;83.59;100775.81;3725443;37;20847;-62
2021/02/02 07:32:26;;;;;;;;;77.50;58.50;;;;;-0.07;83.10;100790.25;3725603;37;20853;-60
2021/02/02 07:35:12;;;;;;;;;72.50;55.00;;;;;-0.04;82.84;100804.19;3725632;37;20830;-61
2021/02/02 07:37:49;;;;;;;;;81.75;58.75;;;;;-0.11;82.41;100812.72;3725626;37;20851;-60
2021/02/02 07:40:18;;;;;;;;;73.00;56.25;;;;;-0.07;82.64;100816.84;3725740;37;20851;-59
2021/02/02 07:43:31;;;;;;;;;78.25;57.75;;;;;-0.02;82.81;100822.69;3725603;38;20829;-60
2021/02/02 07:46:04;;;;;;;;;66.50;53.50;;;;;0.00;82.29;100824.25;3725558;38;20824;-59
2021/02/02 07:48:48;;;;;;;;;70.25;55.50;;;;;0.03;82.18;100828.50;3725245;38;21246;-59
2021/02/02 07:51:17;;;;;;;;;71.50;54.75;;;;;0.18;82.12;100835.41;3725397;38;21246;-59
2021/02/02 07:53:55;;;;;;;;;75.00;52.50;;;;;0.20;81.76;100822.84;3725196;37;21260;-59
2021/02/02 07:56:31;;;;;;;;;67.50;51.25;;;;;0.37;81.26;100828.75;3725323;37;21255;-59
2021/02/02 07:59:21;;;;;;;;;75.00;57.50;;;;;0.39;81.50;100834.81;3725479;38;21269;-59
2021/02/02 08:02:01;;;;;;;;;66.50;49.00;;;;;0.21;80.77;100829.00;3725242;37;21243;-60
2021/02/02 08:05:11;;;;;;;;;71.25;55.00;;;;;0.21;81.00;100837.84;3725257;38;21237;-61
2021/02/02 08:07:38;;;;;;;;;71.75;56.50;;;;;0.19;80.74;100839.75;3725213;38;21217;-58
2021/02/02 08:10:15;;;;;;;;;73.00;49.00;;;;;0.24;80.83;100844.75;3725168;37;21243;-60
2021/02/02 08:12:46;;;;;;;;;78.50;58.50;;;;;0.30;80.82;100839.84;3725368;37;21244;-58
2021/02/02 08:15:17;;;;;;;;;72.75;56.00;;;;;0.44;80.87;100824.69;3724916;38;21202;-59
2021/02/02 08:17:44;;;;;;;;;75.25;60.00;;;;;0.55;80.47;100832.72;3725423;38;21230;-59
2021/02/02 08:20:27;;;;;;;;;74.25;57.00;;;;;0.79;80.40;100830.91;3725280;37;21200;-59
2021/02/02 08:23:01;;;;;;;;;87.00;61.50;;;;;0.90;79.94;100825.62;3725413;38;21221;-61
2021/02/02 08:25:37;;;;;;;;;75.00;57.25;;;;;0.99;79.99;100824.09;3725205;37;21223;-60
2021/02/02 08:28:10;;;;;;;;;78.00;52.50;;;;;1.04;79.69;100815.75;3725898;37;21216;-61
2021/02/02 08:30:45;;;;;;;;;76.00;56.00;;;;;1.16;79.28;100820.13;3725648;37;21203;-59
2021/02/02 08:33:20;;;;;;;;;75.00;55.75;;;;;1.28;79.09;100811.19;3726350;37;21198;-59
2021/02/02 08:35:56;;;;;;;;;79.25;60.25;;;;;1.37;78.21;100821.13;3725551;37;21218;-59
2021/02/02 08:38:38;;;;;;;;;78.25;58.00;;;;;1.45;78.03;100823.22;3725353;38;21189;-60
2021/02/02 08:41:16;;;;;;;;;72.75;56.50;;;;;1.52;77.62;100813.78;3725325;37;21200;-60
2021/02/02 08:43:43;;;;;;;;;64.00;51.75;;;;;1.48;76.24;100809.66;3722184;38;21186;-60
2021/02/02 08:46:24;;;;;;;;;74.00;55.25;;;;;1.27;75.73;100821.00;3722199;37;21177;-57
2021/02/02 08:48:56;;;;;;;;;74.25;54.00;;;;;0.93;75.55;100814.72;3725310;37;21180;-58
2021/02/02 08:51:26;;;;;;;;;69.00;50.75;;;;;0.73;75.79;100815.38;3725385;38;21171;-59
2021/02/02 08:54:01;;;;;;;;;71.50;51.75;;;;;0.61;75.71;100827.78;3725337;38;21161;-59
2021/02/02 08:56:44;;;;;;;;;73.00;53.50;;;;;0.64;76.06;100826.69;3725388;37;21154;-59
2021/02/02 08:59:12;;;;;;;;;73.75;50.25;;;;;0.61;76.06;100833.09;3725354;37;21139;-60
2021/02/02 09:01:38;;;;;;;;;74.25;54.75;;;;;0.71;75.67;100843.09;3725235;38;21147;-59
2021/02/02 09:04:08;;;;;;;;;71.25;49.75;;;;;0.85;75.80;100859.75;3725269;37;21161;-60
2021/02/02 09:06:34;;;;;;;;;62.00;44.00;;;;;0.72;75.52;100842.12;3725152;38;21133;-60
2021/02/02 09:09:07;;;;;;;;;68.75;50.00;;;;;0.85;75.82;100861.56;3725012;38;21130;-59
2021/02/02 09:11:41;;;;;;;;;64.00;46.50;;;;;0.96;75.84;100856.28;3725474;38;21160;-58
2021/02/02 09:14:14;;;;;;;;;67.25;48.75;;;;;1.19;75.32;100857.19;3725128;38;20702;-59
2021/02/02 09:16:41;;;;;;;;;65.25;45.75;;;;;1.27;75.10;100863.66;3725511;37;21116;-61
2021/02/02 09:19:11;;;;;;;;;70.25;51.00;;;;;1.47;75.69;100859.47;3725240;37;21404;-60
2021/02/02 09:21:40;;;;;;;;;73.25;53.25;;;;;1.57;75.45;100851.56;3725387;37;21130;-58
2021/02/02 09:24:25;;;;;;;;;68.75;51.50;;;;;1.63;75.17;100841.28;3725241;37;21128;-61
2021/02/02 09:26:52;;;;;;;;;63.25;47.75;;;;;1.66;74.40;100858.88;3725389;37;21120;-60
2021/02/02 09:29:21;;;;;;;;;68.75;51.75;;;;;1.59;73.55;100861.16;3725289;38;21085;-60
2021/02/02 09:31:50;;;;;;;;;62.25;46.50;;;;;1.51;72.97;100860.94;3725264;38;21114;-60
2021/02/02 09:34:31;;;;;;;;;64.25;46.75;;;;;1.45;73.65;100834.72;3725170;37;21130;-60
2021/02/02 09:37:19;;;;;;;;;74.75;53.00;;;;;1.65;74.24;100862.50;3725320;37;21075;-59
2021/02/02 09:39:46;;;;;;;;;76.50;53.50;;;;;1.91;74.54;100860.47;3725175;37;21115;-59
2021/02/02 09:42:29;;;;;;;;;66.25;49.00;;;;;2.01;74.25;100861.47;3725334;38;21086;-60
2021/02/02 09:45:23;;;;;;;;;63.75;46.00;;;;;2.16;72.91;100862.03;3725190;37;21074;-59
2021/02/02 09:47:56;;;;;;;;;63.50;46.50;;;;;2.14;72.35;100870.16;3725327;37;21091;-60
2021/02/02 09:50:32;;;;;;;;;63.75;48.50;;;;;2.18;71.68;100871.63;3725365;37;21102;-60
2021/02/02 09:53:01;;;;;;;;;59.50;47.00;;;;;2.17;71.55;100864.59;3725215;38;21080;-58
2021/02/02 09:55:30;;;;;;;;;64.00;48.75;;;;;2.19;71.47;100859.12;3725189;38;21058;-60
2021/02/02 09:58:19;;;;;;;;;61.50;47.50;;;;;2.08;71.35;100859.16;3725215;38;21090;-59
2021/02/02 10:00:53;;;;;;;;;62.75;47.50;;;;;2.15;71.75;100861.19;3725339;37;21041;-59
2021/02/02 10:03:31;;;;;;;;;67.50;47.50;;;;;2.29;72.26;100862.75;3725398;38;21062;-61
2021/02/02 10:05:57;;;;;;;;;65.75;49.25;;;;;2.35;71.62;100861.41;3725369;37;21075;-60
2021/02/02 10:08:23;;;;;;;;;66.00;45.50;;;;;2.25;71.25;100869.31;3725481;38;21053;-60
2021/02/02 10:10:50;;;;;;;;;57.00;41.00;;;;;2.10;71.31;100847.34;3725362;37;21067;-59
2021/02/02 10:13:17;;;;;;;;;63.25;47.25;;;;;2.15;71.45;100865.69;3725337;37;21062;-60
2021/02/02 10:15:44;;;;;;;;;69.00;51.25;;;;;2.31;71.53;100859.00;3725217;38;21082;-61
2021/02/02 10:18:17;;;;;;;;;66.50;51.25;;;;;2.56;71.52;100859.69;3725104;38;21072;-58
2021/02/02 10:20:43;;;;;;;;;71.25;50.00;;;;;2.63;71.26;100860.84;3725061;38;21038;-59
2021/02/02 10:23:10;;;;;;;;;59.25;45.75;;;;;2.66;70.88;100856.12;3725318;37;21064;-59
2021/02/02 10:25:37;;;;;;;;;63.00;47.75;;;;;2.64;70.94;100854.53;3725195;38;21022;-58
2021/02/02 10:28:05;;;;;;;;;57.75;45.75;;;;;2.71;70.63;100852.22;3725292;37;21048;-58
2021/02/02 10:30:36;;;;;;;;;61.00;45.75;;;;;2.72;70.72;100868.13;3725333;37;21007;-60
2021/02/02 10:33:03;;;;;;;;;64.50;44.75;;;;;2.80;71.22;100857.66;3725444;38;21029;-61
2021/02/02 10:35:30;;;;;;;;;70.00;53.00;;;;;2.94;71.41;100856.53;3725157;38;20995;-58
2021/02/02 10:37:58;;;;;;;;;66.50;50.75;;;;;2.95;71.22;100852.88;3725386;38;21034;-59
2021/02/02 10:40:25;;;;;;;;;60.50;45.50;;;;;2.83;69.74;100846.72;3725236;38;21014;-59
2021/02/02 10:42:52;;;;;;;;;71.00;52.25;;;;;3.04;70.83;100838.75;3725334;37;21037;-59
2021/02/02 10:45:19;;;;;;;;;65.25;49.50;;;;;2.92;69.39;100853.97;3725252;38;20992;-58
2021/02/02 10:47:45;;;;;;;;;67.25;50.00;;;;;2.70;69.76;100843.34;3725384;38;21000;-58
2021/02/02 10:50:16;;;;;;;;;67.25;49.50;;;;;2.66;70.43;100842.75;3725490;37;20991;-59
2021/02/02 10:52:42;;;;;;;;;68.25;50.50;;;;;2.53;69.39;100847.44;3725426;37;20996;-59
2021/02/02 10:55:09;;;;;;;;;70.50;51.00;;;;;2.30;70.66;100841.28;3725398;38;20978;-58
2021/02/02 10:57:35;;;;;;;;;56.25;47.75;;;;;2.06;70.27;100831.72;3725350;37;21013;-57
2021/02/02 11:00:07;;;;;;;;;63.25;46.75;;;;;1.89;70.05;100857.94;3725213;38;20986;-59
2021/02/02 11:02:33;;;;;;;;;67.25;48.00;;;;;1.74;71.12;100850.28;3725294;38;20821;-61
2021/02/02 11:04:59;;;;;;;;;67.75;46.00;;;;;1.61;70.83;100856.56;3726786;38;20983;-59
2021/02/02 11:07:26;;;;;;;;;66.00;50.00;;;;;1.54;71.44;100867.84;3725481;37;20997;-60
2021/02/02 11:09:55;;;;;;;;;66.25;49.00;;;;;1.56;72.23;100863.25;3727340;38;20973;-60
2021/02/02 11:12:21;;;;;;;;;76.75;54.25;;;;;1.53;72.51;100853.66;3728664;38;20971;-61
2021/02/02 11:14:47;;;;;;;;;61.25;48.50;;;;;1.49;72.18;100854.00;3725852;38;20979;-60
2021/02/02 11:17:14;;;;;;;;;65.25;47.75;;;;;1.26;72.55;100831.78;3726842;37;20982;-59
2021/02/02 11:19:40;;;;;;;;;64.25;47.75;;;;;1.42;73.05;100842.97;3725979;37;20958;-59
2021/02/02 11:22:06;;;;;;;;;69.00;50.50;;;;;1.41;73.05;100843.09;3725690;37;20976;-58
2021/02/02 11:24:32;;;;;;;;;64.75;46.50;;;;;1.20;73.67;100826.91;3725874;38;20961;-57
2021/02/02 11:26:59;;;;;;;;;66.50;49.50;;;;;1.17;73.98;100840.47;3725475;38;20955;-60
2021/02/02 11:29:25;;;;;;;;;65.75;48.00;;;;;1.03;74.42;100832.69;3725174;38;20959;-60
2021/02/02 11:31:51;;;;;;;;;69.25;49.50;;;;;1.14;74.55;100841.56;3725117;38;20974;-58
2021/02/02 11:34:18;;;;;;;;;98.00;73.75;;;;;1.14;74.70;100832.72;3725208;38;20924;-59
2021/02/02 11:36:44;;;;;;;;;82.25;58.50;;;;;1.31;75.51;100822.47;3725482;38;17753;-59
2021/02/02 11:39:10;;;;;;;;;71.75;52.00;;;;;1.45;75.26;100823.22;3725262;38;20947;-60
2021/02/02 11:41:36;;;;;;;;;69.25;50.50;;;;;1.47;75.31;100824.78;3725271;38;20940;-58
2021/02/02 11:44:03;;;;;;;;;67.50;50.00;;;;;1.51;75.34;100836.94;3725246;37;20928;-60
2021/02/02 11:46:29;;;;;;;;;63.25;48.00;;;;;1.47;74.53;100843.47;3725215;37;20950;-60
2021/02/02 11:48:56;;;;;;;;;59.50;48.75;;;;;1.45;75.15;100815.22;3725274;38;20940;-60
2021/02/02 11:51:23;;;;;;;;;59.25;45.00;;;;;1.55;74.57;100834.88;3725255;38;20917;-60
2021/02/02 11:53:49;;;;;;;;;67.25;51.25;;;;;1.59;74.93;100845.16;3725001;38;20573;-58